createdAt,value
2019-03-27T00:01:57.418Z,33.30
2019-03-27T00:04:24.240Z,32.90
2019-03-27T00:06:51.066Z,32.90
2019-03-27T00:09:17.709Z,32.70
2019-03-27T00:11:44.312Z,32.40
2019-03-27T00:14:10.987Z,32.90
2019-03-27T00:16:37.621Z,32.80
2019-03-27T00:19:04.126Z,32.60
2019-03-27T00:21:30.810Z,32.40
2019-03-27T00:23:57.823Z,32.70
2019-03-27T00:26:24.483Z,33.10
2019-03-27T00:28:51.323Z,33.10
2019-03-27T00:31:18.061Z,32.70
2019-03-27T00:33:44.467Z,34.10
2019-03-27T00:36:11.116Z,33.50
2019-03-27T00:38:38.063Z,32.80
2019-03-27T00:41:04.806Z,33.90
2019-03-27T00:43:31.474Z,32.80
2019-03-27T00:45:57.999Z,31.60
2019-03-27T00:48:24.505Z,30.90
2019-03-27T00:50:51.452Z,29.60
2019-03-27T00:53:18.197Z,29.90
2019-03-27T00:55:44.801Z,31.00
2019-03-27T00:58:11.355Z,31.50
2019-03-27T01:00:44.657Z,31.30
2019-03-27T01:03:11.266Z,30.60
2019-03-27T01:05:37.810Z,30.80
2019-03-27T01:08:04.651Z,29.80
2019-03-27T01:10:31.283Z,30.00
2019-03-27T01:12:57.929Z,29.30
2019-03-27T01:15:24.546Z,30.00
2019-03-27T01:17:51.167Z,30.50
2019-03-27T01:20:17.685Z,33.40
2019-03-27T01:22:44.197Z,36.80
2019-03-27T01:25:12.454Z,37.40
2019-03-27T01:27:39.129Z,37.70
2019-03-27T01:30:05.741Z,38.40
2019-03-27T01:32:50.757Z,39.20
2019-03-27T01:35:17.272Z,39.80
2019-03-27T01:37:43.808Z,40.90
2019-03-27T01:40:10.255Z,40.90
2019-03-27T01:42:36.882Z,40.50
2019-03-27T01:45:05.879Z,40.20
2019-03-27T01:47:32.429Z,39.80
2019-03-27T01:49:59.050Z,40.30
2019-03-27T01:52:25.665Z,40.00
2019-03-27T01:54:52.296Z,39.70
2019-03-27T01:57:18.997Z,38.90
2019-03-27T01:59:45.634Z,37.60
2019-03-27T02:02:12.535Z,36.90
2019-03-27T02:04:39.181Z,36.10
2019-03-27T02:07:05.695Z,37.20
2019-03-27T02:09:32.344Z,36.90
2019-03-27T02:11:59.335Z,37.20
2019-03-27T02:14:26.058Z,36.90
2019-03-27T02:16:52.630Z,37.10
2019-03-27T02:19:19.469Z,36.60
2019-03-27T02:21:46.142Z,35.50
2019-03-27T02:24:12.807Z,37.10
2019-03-27T02:26:39.491Z,37.40
2019-03-27T02:29:05.927Z,38.10
2019-03-27T02:31:32.583Z,38.60
2019-03-27T02:33:59.326Z,39.00
2019-03-27T02:36:25.826Z,39.70
2019-03-27T02:38:52.496Z,39.30
2019-03-27T02:41:18.943Z,40.10
2019-03-27T02:43:45.575Z,40.30
2019-03-27T02:46:24.408Z,40.80
2019-03-27T02:48:40.731Z,40.30
2019-03-27T02:51:07.355Z,39.90
2019-03-27T02:53:34.059Z,40.90
2019-03-27T02:56:00.574Z,40.80
2019-03-27T02:58:27.185Z,39.50
2019-03-27T03:00:53.704Z,38.70
2019-03-27T03:03:20.216Z,38.20
2019-03-27T03:05:46.787Z,38.10
2019-03-27T03:08:13.396Z,37.90
2019-03-27T03:10:40.101Z,37.20
2019-03-27T03:13:06.725Z,36.30
2019-03-27T03:15:33.447Z,35.50
2019-03-27T03:18:00.084Z,35.50
2019-03-27T03:20:26.701Z,34.90
2019-03-27T03:22:53.352Z,34.40
2019-03-27T03:25:20.076Z,35.10
2019-03-27T03:27:47.037Z,35.90
2019-03-27T03:30:13.702Z,34.70
2019-03-27T03:32:40.332Z,35.40
2019-03-27T03:35:07.166Z,36.30
2019-03-27T03:37:33.832Z,36.20
2019-03-27T03:40:00.938Z,36.90
2019-03-27T03:42:27.555Z,38.20
2019-03-27T03:44:54.213Z,39.00
2019-03-27T03:47:20.827Z,40.80
2019-03-27T03:49:47.338Z,41.30
2019-03-27T03:52:13.999Z,40.50
2019-03-27T03:54:40.728Z,41.10
2019-03-27T03:57:07.344Z,40.90
2019-03-27T03:59:34.030Z,41.00
2019-03-27T04:02:02.147Z,40.80
2019-03-27T04:04:28.758Z,40.90
2019-03-27T04:06:55.412Z,40.20
2019-03-27T04:09:22.038Z,39.20
2019-03-27T04:11:48.545Z,39.10
2019-03-27T04:14:15.101Z,39.10
2019-03-27T04:16:41.507Z,38.60
2019-03-27T04:19:08.353Z,38.10
2019-03-27T04:21:34.910Z,37.70
2019-03-27T04:24:01.543Z,37.90
2019-03-27T04:26:28.299Z,37.50
2019-03-27T04:28:55.003Z,38.20
2019-03-27T04:31:21.555Z,38.60
2019-03-27T04:33:48.071Z,38.90
2019-03-27T04:36:14.734Z,39.20
2019-03-27T04:38:41.342Z,38.90
2019-03-27T04:41:07.867Z,38.10
2019-03-27T04:43:34.426Z,37.00
2019-03-27T04:46:01.128Z,36.80
2019-03-27T04:48:29.577Z,36.90
2019-03-27T04:50:56.534Z,36.10
2019-03-27T04:53:23.114Z,36.50
2019-03-27T04:55:49.696Z,35.40
2019-03-27T04:58:16.289Z,37.10
2019-03-27T05:00:42.923Z,37.60
2019-03-27T05:03:09.543Z,38.10
2019-03-27T05:05:36.389Z,37.90
2019-03-27T05:08:03.010Z,38.50
2019-03-27T05:10:29.685Z,38.50
2019-03-27T05:12:56.326Z,39.70
2019-03-27T05:15:23.005Z,39.30
2019-03-27T05:17:49.634Z,39.40
2019-03-27T05:20:16.307Z,39.20
2019-03-27T05:22:42.931Z,39.40
2019-03-27T05:25:09.552Z,39.80
2019-03-27T05:27:36.610Z,40.40
2019-03-27T05:30:05.146Z,40.10
2019-03-27T05:32:31.536Z,39.20
2019-03-27T05:34:58.100Z,39.20
2019-03-27T05:37:24.723Z,39.80
2019-03-27T05:39:51.344Z,40.20
2019-03-27T05:42:17.871Z,40.00
2019-03-27T05:44:44.378Z,39.00
2019-03-27T05:47:10.889Z,38.60
2019-03-27T05:49:37.608Z,37.60
2019-03-27T05:52:04.177Z,37.60
2019-03-27T05:54:31.327Z,38.50
2019-03-27T05:56:58.159Z,38.80
2019-03-27T05:59:24.567Z,39.90
2019-03-27T06:01:51.181Z,42.00
2019-03-27T06:04:17.813Z,40.50
2019-03-27T06:06:44.321Z,40.20
2019-03-27T06:09:10.878Z,39.50
2019-03-27T06:11:37.550Z,39.80
2019-03-27T06:14:04.063Z,39.90
2019-03-27T06:16:30.960Z,39.80
2019-03-27T06:18:57.566Z,40.40
2019-03-27T06:21:24.186Z,40.90
2019-03-27T06:23:50.725Z,40.30
2019-03-27T06:26:17.371Z,40.20
2019-03-27T06:28:43.974Z,39.60
2019-03-27T06:31:11.236Z,39.50
2019-03-27T06:33:37.998Z,40.00
2019-03-27T06:36:04.610Z,40.20
2019-03-27T06:38:31.251Z,40.90
2019-03-27T06:40:57.801Z,41.10
2019-03-27T06:43:24.304Z,41.00
2019-03-27T06:45:50.935Z,41.10
2019-03-27T06:48:26.073Z,41.50
2019-03-27T06:50:46.107Z,40.60
2019-03-27T06:53:12.653Z,41.70
2019-03-27T06:55:39.216Z,41.10
2019-03-27T06:58:05.843Z,40.50
2019-03-27T07:00:34.754Z,40.00
2019-03-27T07:03:01.449Z,40.90
2019-03-27T07:05:28.073Z,41.80
2019-03-27T07:07:54.694Z,40.60
2019-03-27T07:10:21.349Z,40.60
2019-03-27T07:12:47.852Z,39.60
2019-03-27T07:15:14.453Z,41.10
2019-03-27T07:17:41.179Z,40.40
2019-03-27T07:20:07.795Z,40.00
2019-03-27T07:22:34.510Z,39.90
2019-03-27T07:25:01.356Z,39.40
2019-03-27T07:27:27.987Z,38.80
2019-03-27T07:29:54.611Z,38.50
2019-03-27T07:32:21.424Z,38.90
2019-03-27T07:34:47.882Z,39.00
2019-03-27T07:37:14.399Z,37.80
2019-03-27T07:39:40.925Z,37.50
2019-03-27T07:42:09.884Z,38.60
2019-03-27T07:44:36.431Z,39.10
2019-03-27T07:47:03.045Z,38.30
2019-03-27T07:49:29.748Z,38.20
2019-03-27T07:51:56.306Z,37.70
2019-03-27T07:54:22.974Z,38.10
2019-03-27T07:56:49.599Z,38.60
2019-03-27T07:59:16.132Z,38.90
2019-03-27T08:01:42.774Z,39.00
2019-03-27T08:04:09.189Z,38.10
2019-03-27T08:06:35.802Z,38.50
2019-03-27T08:09:03.655Z,37.70
2019-03-27T08:11:30.316Z,38.70
2019-03-27T08:13:57.295Z,37.90
2019-03-27T08:16:23.854Z,39.30
2019-03-27T08:18:50.366Z,39.00
2019-03-27T08:21:17.024Z,38.30
2019-03-27T08:23:43.691Z,37.90
2019-03-27T08:26:10.327Z,36.30
2019-03-27T08:28:36.953Z,36.30
2019-03-27T08:31:03.610Z,36.60
2019-03-27T08:33:30.650Z,35.80
2019-03-27T08:35:57.152Z,36.00
2019-03-27T08:38:24.118Z,35.70
2019-03-27T08:40:50.755Z,35.40
2019-03-27T08:43:21.461Z,35.30
2019-03-27T08:45:45.763Z,36.60
2019-03-27T08:48:12.412Z,36.00
2019-03-27T08:50:39.050Z,35.90
2019-03-27T08:53:05.619Z,36.00
2019-03-27T08:55:32.321Z,36.00
2019-03-27T08:57:58.841Z,36.30
2019-03-27T09:00:51.152Z,35.30
2019-03-27T09:03:17.782Z,34.50
2019-03-27T09:05:44.286Z,35.30
2019-03-27T09:08:11.362Z,35.30
2019-03-27T09:10:37.947Z,34.90
2019-03-27T09:13:04.452Z,35.70
2019-03-27T09:15:31.116Z,34.80
2019-03-27T09:17:57.755Z,34.60
2019-03-27T09:20:24.379Z,34.70
2019-03-27T09:22:51.034Z,34.20
2019-03-27T09:25:17.573Z,33.90
2019-03-27T09:27:44.079Z,34.30
2019-03-27T09:30:11.404Z,34.60
2019-03-27T09:32:38.026Z,35.80
2019-03-27T09:35:04.690Z,34.50
2019-03-27T09:37:31.632Z,33.40
2019-03-27T09:39:58.296Z,33.10
2019-03-27T09:42:24.966Z,33.70
2019-03-27T09:44:51.710Z,34.60
2019-03-27T09:47:18.243Z,33.90
2019-03-27T09:49:49.963Z,33.90
2019-03-27T09:52:13.098Z,34.40
2019-03-27T09:54:39.725Z,33.70
2019-03-27T09:57:06.341Z,32.90
2019-03-27T09:59:33.035Z,32.40
2019-03-27T10:01:59.650Z,32.30
2019-03-27T10:04:26.272Z,32.10
2019-03-27T10:06:52.946Z,32.10
2019-03-27T10:09:19.870Z,30.80
2019-03-27T10:11:46.383Z,31.70
2019-03-27T10:14:13.119Z,31.80
2019-03-27T10:16:39.738Z,32.40
2019-03-27T10:19:06.353Z,32.70
2019-03-27T10:21:33.039Z,31.70
2019-03-27T10:23:59.655Z,31.80
2019-03-27T10:26:26.187Z,31.90
2019-03-27T10:28:53.127Z,31.70
2019-03-27T10:31:19.679Z,32.90
2019-03-27T10:33:46.271Z,32.90
2019-03-27T10:36:13.023Z,32.50
2019-03-27T10:38:41.736Z,33.60
2019-03-27T10:41:07.985Z,33.40
2019-03-27T10:43:34.643Z,32.90
2019-03-27T10:46:01.265Z,32.50
2019-03-27T10:48:27.842Z,31.30
2019-03-27T10:50:54.991Z,32.20
2019-03-27T10:53:21.404Z,33.70
2019-03-27T10:55:47.939Z,31.70
2019-03-27T10:58:14.584Z,31.10
2019-03-27T11:00:41.105Z,32.70
2019-03-27T11:03:07.631Z,33.50
2019-03-27T11:05:34.481Z,33.80
2019-03-27T11:08:01.104Z,32.00
2019-03-27T11:10:27.781Z,32.70
2019-03-27T11:12:54.478Z,35.00
2019-03-27T11:15:20.998Z,33.80
2019-03-27T11:17:47.399Z,34.40
2019-03-27T11:20:15.537Z,34.10
2019-03-27T11:22:42.051Z,32.80
2019-03-27T11:25:08.971Z,33.80
2019-03-27T11:27:35.590Z,33.20
2019-03-27T11:30:04.798Z,33.00
2019-03-27T11:32:31.311Z,34.10
2019-03-27T11:34:58.052Z,32.80
2019-03-27T11:37:24.701Z,33.40
2019-03-27T11:39:51.214Z,33.00
2019-03-27T11:42:17.760Z,33.00
2019-03-27T11:44:44.404Z,32.00
2019-03-27T11:47:11.022Z,32.20
2019-03-27T11:49:37.615Z,34.10
2019-03-27T11:52:04.241Z,31.60
2019-03-27T11:54:30.752Z,32.50
2019-03-27T11:56:57.387Z,31.80
2019-03-27T11:59:24.022Z,31.10
2019-03-27T12:01:50.539Z,29.60
2019-03-27T12:04:17.497Z,32.00
2019-03-27T12:06:44.107Z,32.00
2019-03-27T12:09:10.742Z,31.40
2019-03-27T12:11:37.733Z,29.20
2019-03-27T12:14:04.456Z,31.10
2019-03-27T12:16:31.317Z,29.10
2019-03-27T12:18:58.015Z,30.50
2019-03-27T12:21:24.640Z,30.00
2019-03-27T12:23:51.254Z,28.80
2019-03-27T12:26:17.812Z,30.90
2019-03-27T12:28:44.458Z,30.00
2019-03-27T12:31:11.063Z,28.00
2019-03-27T12:33:37.813Z,29.40
2019-03-27T12:36:04.443Z,30.80
2019-03-27T12:38:32.293Z,27.10
2019-03-27T12:40:58.946Z,27.50
2019-03-27T12:43:25.576Z,26.70
2019-03-27T12:45:52.233Z,29.20
2019-03-27T12:48:18.895Z,27.50
2019-03-27T12:50:45.570Z,29.30
2019-03-27T12:53:12.290Z,28.10
2019-03-27T12:55:38.945Z,26.70
2019-03-27T12:58:05.466Z,27.90
2019-03-27T13:00:32.121Z,26.90
2019-03-27T13:02:58.758Z,28.40
2019-03-27T13:05:25.406Z,26.60
2019-03-27T13:07:52.303Z,24.80
2019-03-27T13:10:18.815Z,26.30
2019-03-27T13:13:05.092Z,25.80
2019-03-27T13:15:31.599Z,25.40
2019-03-27T13:17:58.135Z,23.90
2019-03-27T13:20:24.807Z,22.90
2019-03-27T13:22:51.466Z,20.90
2019-03-27T13:25:18.079Z,19.40
2019-03-27T13:27:47.388Z,17.70
2019-03-27T13:30:13.091Z,17.70
2019-03-27T13:32:39.618Z,15.90
2019-03-27T13:35:06.261Z,15.50
2019-03-27T13:37:32.889Z,15.40
2019-03-27T13:40:00.136Z,14.80
2019-03-27T13:42:27.165Z,14.40
2019-03-27T13:44:53.665Z,14.60
2019-03-27T13:47:20.516Z,12.50
2019-03-27T13:49:47.152Z,12.00
2019-03-27T13:52:13.782Z,13.00
2019-03-27T13:54:40.430Z,11.80
2019-03-27T13:57:07.206Z,12.20
2019-03-27T13:59:33.741Z,13.10
2019-03-27T14:02:00.360Z,14.40
2019-03-27T14:04:27.146Z,12.30
2019-03-27T14:06:53.669Z,11.50
2019-03-27T14:09:20.651Z,12.20
2019-03-27T14:11:47.293Z,13.00
2019-03-27T14:14:13.822Z,12.00
2019-03-27T14:16:40.334Z,12.40
2019-03-27T14:19:06.991Z,11.70
2019-03-27T14:21:33.630Z,13.40
2019-03-27T14:24:00.241Z,13.20
2019-03-27T14:26:26.876Z,13.10
2019-03-27T14:28:53.490Z,14.10
2019-03-27T14:31:21.968Z,14.10
2019-03-27T14:33:48.501Z,13.30
2019-03-27T14:36:15.079Z,14.60
2019-03-27T14:38:41.605Z,14.10
2019-03-27T14:41:08.409Z,13.70
2019-03-27T14:43:35.050Z,12.60
2019-03-27T14:46:01.670Z,14.10
2019-03-27T14:48:28.440Z,14.00
2019-03-27T14:50:55.065Z,14.40
2019-03-27T14:53:21.678Z,13.30
2019-03-27T14:55:48.457Z,13.80
2019-03-27T14:58:15.127Z,14.60
2019-03-27T15:00:41.516Z,14.60
2019-03-27T15:03:08.182Z,13.40
2019-03-27T15:05:34.902Z,13.30
2019-03-27T15:08:04.086Z,13.40
2019-03-27T15:10:30.007Z,14.90
2019-03-27T15:12:56.522Z,14.30
2019-03-27T15:15:23.136Z,13.00
2019-03-27T15:17:49.777Z,11.70
2019-03-27T15:20:16.423Z,12.60
2019-03-27T15:22:43.047Z,13.10
2019-03-27T15:25:09.695Z,12.20
2019-03-27T15:27:36.285Z,12.40
2019-03-27T15:30:08.085Z,11.70
2019-03-27T15:32:35.013Z,12.10
2019-03-27T15:35:01.563Z,13.50
2019-03-27T15:37:28.173Z,13.50
2019-03-27T15:39:55.367Z,13.10
2019-03-27T15:42:22.039Z,12.60
2019-03-27T15:44:49.984Z,12.40
2019-03-27T15:47:17.990Z,11.50
2019-03-27T15:49:45.188Z,12.60
2019-03-27T15:52:11.800Z,11.30
2019-03-27T15:54:38.658Z,12.30
2019-03-27T15:57:05.328Z,12.10
2019-03-27T15:59:31.951Z,12.80
2019-03-27T16:01:58.572Z,13.10
2019-03-27T16:04:25.308Z,12.00
2019-03-27T16:06:51.925Z,11.30
2019-03-27T16:09:19.211Z,10.40
2019-03-27T16:11:45.844Z,11.00
2019-03-27T16:14:12.473Z,12.40
2019-03-27T16:16:39.106Z,11.90
2019-03-27T16:19:05.789Z,12.20
2019-03-27T16:21:32.300Z,12.00
2019-03-27T16:24:06.360Z,12.40
2019-03-27T16:26:27.448Z,12.50
2019-03-27T16:28:53.946Z,12.40
2019-03-27T16:31:20.643Z,13.00
2019-03-27T16:33:47.261Z,12.30
2019-03-27T16:36:13.906Z,12.30
2019-03-27T16:38:40.545Z,12.60
2019-03-27T16:41:07.296Z,13.40
2019-03-27T16:43:33.968Z,13.40
2019-03-27T16:46:00.709Z,13.60
2019-03-27T16:48:27.218Z,13.10
2019-03-27T16:50:53.838Z,13.70
2019-03-27T16:53:20.724Z,13.80
2019-03-27T16:55:47.370Z,13.60
2019-03-27T16:58:13.988Z,13.80
2019-03-27T17:00:40.919Z,13.70
2019-03-27T17:03:07.563Z,14.40
2019-03-27T17:05:34.083Z,14.40
2019-03-27T17:08:01.133Z,14.40
2019-03-27T17:10:27.746Z,14.70
2019-03-27T17:12:54.047Z,13.90
2019-03-27T17:15:20.569Z,14.00
2019-03-27T17:17:47.204Z,14.40
2019-03-27T17:20:13.817Z,14.00
2019-03-27T17:22:40.615Z,15.10
2019-03-27T17:25:07.177Z,14.90
2019-03-27T17:27:33.798Z,14.80
2019-03-27T17:30:00.378Z,14.60
2019-03-27T17:32:27.249Z,16.00
2019-03-27T17:34:53.868Z,15.30
2019-03-27T17:37:20.381Z,16.30
2019-03-27T17:39:47.003Z,16.50
2019-03-27T17:42:13.617Z,16.80
2019-03-27T17:44:40.641Z,16.30
2019-03-27T17:47:07.173Z,15.90
2019-03-27T17:49:33.710Z,16.30
2019-03-27T17:52:00.389Z,17.20
2019-03-27T17:54:27.012Z,17.60
2019-03-27T17:56:53.709Z,16.20
2019-03-27T17:59:20.454Z,16.20
2019-03-27T18:01:47.080Z,17.90
2019-03-27T18:04:13.494Z,19.20
2019-03-27T18:06:40.355Z,19.30
2019-03-27T18:09:06.998Z,19.20
2019-03-27T18:11:33.628Z,19.50
2019-03-27T18:14:00.311Z,20.10
2019-03-27T18:16:27.006Z,20.90
2019-03-27T18:18:53.655Z,21.60
2019-03-27T18:21:21.439Z,21.80
2019-03-27T18:23:48.127Z,20.80
2019-03-27T18:26:14.743Z,22.00
2019-03-27T18:31:21.510Z,23.70
2019-03-27T18:33:48.033Z,24.20
2019-03-27T18:36:14.563Z,24.20
2019-03-27T18:38:41.186Z,24.90
2019-03-27T18:41:07.799Z,25.60
2019-03-27T18:43:34.568Z,25.40
2019-03-27T18:46:01.281Z,26.30
2019-03-27T18:48:27.894Z,26.20
2019-03-27T18:50:54.843Z,27.60
2019-03-27T18:53:21.537Z,27.50
2019-03-27T18:55:48.149Z,27.70
2019-03-27T18:58:14.976Z,27.40
2019-03-27T19:00:41.446Z,27.40
2019-03-27T19:03:07.953Z,27.80
2019-03-27T19:05:34.659Z,28.70
2019-03-27T19:08:01.419Z,28.60
2019-03-27T19:10:28.042Z,28.90
2019-03-27T19:12:54.686Z,29.30
2019-03-27T19:15:21.325Z,29.40
2019-03-27T19:17:47.957Z,29.70
2019-03-27T19:20:14.648Z,29.80
2019-03-27T19:22:41.157Z,29.70
2019-03-27T19:25:07.765Z,29.70
2019-03-27T19:27:34.473Z,29.60
2019-03-27T19:30:01.114Z,30.40
2019-03-27T19:32:27.736Z,31.10
2019-03-27T19:34:54.280Z,31.80
2019-03-27T19:37:20.907Z,31.90
2019-03-27T19:39:48.032Z,34.10
2019-03-27T19:42:14.704Z,35.50
2019-03-27T19:44:41.227Z,34.80
2019-03-27T19:47:07.938Z,34.30
2019-03-27T19:49:34.918Z,33.40
2019-03-27T19:52:01.669Z,33.90
2019-03-27T19:54:28.203Z,32.60
2019-03-27T19:56:54.946Z,31.70
2019-03-27T19:59:21.598Z,32.10
2019-03-27T20:01:48.232Z,34.70
2019-03-27T20:04:14.887Z,34.80
2019-03-27T20:06:41.507Z,34.80
2019-03-27T20:09:08.150Z,34.90
2019-03-27T20:11:34.825Z,35.10
2019-03-27T20:14:01.781Z,35.50
2019-03-27T20:16:28.441Z,35.30
2019-03-27T20:18:55.298Z,34.70
2019-03-27T20:21:21.842Z,34.60
2019-03-27T20:23:48.546Z,33.30
2019-03-27T20:26:15.207Z,30.80
2019-03-27T20:28:41.725Z,28.10
2019-03-27T20:31:08.364Z,25.80
2019-03-27T20:33:38.006Z,24.80
2019-03-27T20:36:03.627Z,24.10
2019-03-27T20:38:30.265Z,24.00
2019-03-27T20:40:57.251Z,23.20
2019-03-27T20:43:23.866Z,23.10
2019-03-27T20:45:50.495Z,23.20
2019-03-27T20:48:17.479Z,26.40
2019-03-27T20:50:43.914Z,27.80
2019-03-27T20:53:10.425Z,30.60
2019-03-27T20:55:37.095Z,31.10
2019-03-27T20:58:03.715Z,31.80
2019-03-27T21:00:30.255Z,32.20
2019-03-27T21:02:57.132Z,32.80
2019-03-27T21:05:23.766Z,33.60
2019-03-27T21:07:50.276Z,34.50
2019-03-27T21:10:17.496Z,33.40
2019-03-27T21:12:44.129Z,33.00
2019-03-27T21:15:10.651Z,32.50
2019-03-27T21:17:37.641Z,32.50
2019-03-27T21:20:04.971Z,32.00
2019-03-27T21:22:31.578Z,31.10
2019-03-27T21:25:08.060Z,30.40
2019-03-27T21:27:26.616Z,28.50
2019-03-27T21:29:53.350Z,27.90
2019-03-27T21:32:19.999Z,27.80
2019-03-27T21:34:46.818Z,27.80
2019-03-27T21:37:13.439Z,27.80
2019-03-27T21:39:40.125Z,28.60
2019-03-27T21:42:06.764Z,29.50
2019-03-27T21:44:33.394Z,31.20
2019-03-27T21:47:00.051Z,31.60
2019-03-27T21:49:26.905Z,33.80
2019-03-27T21:51:53.553Z,33.90
2019-03-27T21:54:20.083Z,33.80
2019-03-27T21:56:46.702Z,32.30
2019-03-27T21:59:13.329Z,30.00
2019-03-27T22:01:40.010Z,28.20
2019-03-27T22:04:06.629Z,28.30
2019-03-27T22:06:33.599Z,32.00
2019-03-27T22:09:00.292Z,35.00
2019-03-27T22:11:26.919Z,36.40
2019-03-27T22:13:53.949Z,36.20
2019-03-27T22:16:20.577Z,37.00
2019-03-27T22:18:47.178Z,36.80
2019-03-27T22:21:13.753Z,36.80
2019-03-27T22:23:40.334Z,37.90
2019-03-27T22:26:06.953Z,37.50
2019-03-27T22:28:33.584Z,38.80
2019-03-27T22:31:00.781Z,39.00
2019-03-27T22:33:27.391Z,39.30
2019-03-27T22:35:54.227Z,39.10
2019-03-27T22:38:20.882Z,39.70
2019-03-27T22:40:47.397Z,40.40
2019-03-27T22:43:14.024Z,40.20
2019-03-27T22:45:40.994Z,40.00
2019-03-27T22:48:07.513Z,40.20
2019-03-27T22:50:34.426Z,39.70
2019-03-27T22:53:01.238Z,39.90
2019-03-27T22:55:27.896Z,39.90
2019-03-27T22:57:54.383Z,38.80
2019-03-27T23:00:22.867Z,38.30
2019-03-27T23:02:49.508Z,40.50
2019-03-27T23:05:16.023Z,40.40
2019-03-27T23:07:42.552Z,40.30
2019-03-27T23:10:09.386Z,38.40
2019-03-27T23:12:36.190Z,38.90
2019-03-27T23:15:06.172Z,37.90
2019-03-27T23:17:32.694Z,39.30
2019-03-27T23:19:59.229Z,39.50
2019-03-27T23:22:25.993Z,39.30
2019-03-27T23:24:52.853Z,38.70
2019-03-27T23:27:19.473Z,38.30
2019-03-27T23:29:45.898Z,39.20
2019-03-27T23:32:12.368Z,39.50
2019-03-27T23:34:38.925Z,39.00
2019-03-27T23:37:05.670Z,39.70
2019-03-27T23:39:32.186Z,40.40
2019-03-27T23:41:58.758Z,40.70
2019-03-27T23:44:25.176Z,40.40
2019-03-27T23:46:51.806Z,41.60
2019-03-27T23:49:18.445Z,40.90
2019-03-27T23:51:45.029Z,41.20
2019-03-27T23:54:11.642Z,40.40
2019-03-27T23:56:38.270Z,40.10
2019-03-27T23:59:04.689Z,38.40
